Time;durP1;ratioP1;P1;durP2;ratioP2;P2;SDS_P1;SDS_P2;PMS_P1;PMS_P2;Temp;Humidity;BMP_temperature;BMP_pressure;BME280_temperature;BME280_humidity;BME280_pressure;Samples;Min_cycle;Max_cycle;Signal;HPM_P1;HPM_P2
2022/10/09 00:01:15;;;;;;;;;;;18.90;96.60;;;;;;5071236;28;20275;-77
2022/10/09 00:03:43;;;;;;;;;;;19.00;97.40;;;;;;5066801;28;19913;-80
2022/10/09 00:06:11;;;;;;;;;;;19.30;96.20;;;;;;5072844;28;20062;-81
2022/10/09 00:08:38;;;;;;;;;;;19.40;96.50;;;;;;5069301;28;19916;-80
2022/10/09 00:11:06;;;;;;;;;;;19.60;96.50;;;;;;5072362;28;19924;-83
2022/10/09 00:13:32;;;;;;;;;;;19.60;96.30;;;;;;5070330;28;19938;-86
2022/10/09 00:16:02;;;;;;;;;;;19.50;95.90;;;;;;5073096;28;19924;-83
2022/10/09 00:18:29;;;;;;;;;;;19.20;95.60;;;;;;5063563;28;20432;-88
2022/10/09 00:20:55;;;;;;;;;;;18.90;96.00;;;;;;5072802;28;19919;-83
2022/10/09 00:23:22;;;;;;;;;;;18.80;97.00;;;;;;5070449;28;19924;-84
2022/10/09 00:25:50;;;;;;;;;;;18.80;96.70;;;;;;5061594;28;20027;-81
2022/10/09 00:28:16;;;;;;;;;;;18.80;97.10;;;;;;5065319;28;19917;-79
2022/10/09 00:30:43;;;;;;;;;;;18.90;96.30;;;;;;5060432;28;20044;-79
2022/10/09 00:33:13;;;;;;;;;;;18.90;96.30;;;;;;5066414;28;19955;-85
2022/10/09 00:35:39;;;;;;;;;;;19.00;96.10;;;;;;5072651;28;19928;-83
2022/10/09 00:38:06;;;;;;;;;;;18.90;96.50;;;;;;5074329;28;20275;-86
2022/10/09 00:40:33;;;;;;;;;;;18.80;95.80;;;;;;5073637;28;19943;-87
2022/10/09 00:43:00;;;;;;;;;;;18.80;96.20;;;;;;5069709;28;19939;-79
2022/10/09 00:45:27;;;;;;;;;;;18.80;96.60;;;;;;5063421;28;19919;-83
2022/10/09 00:47:57;;;;;;;;;;;18.80;97.20;;;;;;5059686;28;20006;-83
2022/10/09 00:50:23;;;;;;;;;;;18.70;96.30;;;;;;5071580;28;19942;-84
2022/10/09 00:52:53;;;;;;;;;;;19.00;97.40;;;;;;5070130;28;19927;-81
2022/10/09 00:55:20;;;;;;;;;;;19.10;96.30;;;;;;5065931;28;20375;-80
2022/10/09 00:57:48;;;;;;;;;;;19.40;96.90;;;;;;5066697;28;19919;-82
2022/10/09 01:00:15;;;;;;;;;;;19.60;96.20;;;;;;5070303;28;19982;-84
2022/10/09 01:02:41;;;;;;;;;;;19.90;96.20;;;;;;5071606;28;19977;-82
2022/10/09 01:05:09;;;;;;;;;;;20.10;95.20;;;;;;5074514;28;19966;-85
2022/10/09 01:07:56;;;;;;;;;;;20.00;95.60;;;;;;5065595;28;20016;-89
2022/10/09 01:10:27;;;;;;;;;;;19.90;96.00;;;;;;5074042;28;19916;-86
2022/10/09 01:13:00;;;;;;;;;;;19.80;95.20;;;;;;5070076;28;19920;-77
2022/10/09 01:15:38;;;;;;;;;;;20.20;96.10;;;;;;5067958;28;19916;-78
2022/10/09 01:18:04;;;;;;;;;;;20.60;95.60;;;;;;5067695;28;19913;-78
2022/10/09 01:20:36;;;;;;;;;;;20.80;95.60;;;;;;5066708;28;19913;-77
2022/10/09 01:23:11;;;;;;;;;;;20.90;93.80;;;;;;5069658;28;20473;-77
2022/10/09 01:25:56;;;;;;;;;;;20.70;94.00;;;;;;5064834;28;19928;-77
2022/10/09 01:28:27;;;;;;;;;;;20.30;93.90;;;;;;5068412;28;19923;-76
2022/10/09 01:30:56;;;;;;;;;;;19.90;94.70;;;;;;5063979;28;20290;-77
2022/10/09 01:33:23;;;;;;;;;;;19.70;94.30;;;;;;5069634;28;19912;-77
2022/10/09 01:35:49;;;;;;;;;;;19.40;95.00;;;;;;5062383;28;19947;-78
2022/10/09 01:38:17;;;;;;;;;;;19.30;95.30;;;;;;5070633;28;19920;-78
2022/10/09 01:40:44;;;;;;;;;;;19.10;95.30;;;;;;5064956;28;19920;-77
2022/10/09 01:43:10;;;;;;;;;;;19.00;95.00;;;;;;5068225;28;19999;-79
2022/10/09 01:45:42;;;;;;;;;;;18.90;95.20;;;;;;5065250;28;20039;-78
2022/10/09 01:48:11;;;;;;;;;;;18.90;96.00;;;;;;5069534;28;19923;-77
2022/10/09 01:50:39;;;;;;;;;;;19.10;95.50;;;;;;5067067;28;20323;-76
2022/10/09 01:53:09;;;;;;;;;;;19.30;95.30;;;;;;5069627;28;19969;-76
2022/10/09 01:55:41;;;;;;;;;;;19.40;95.30;;;;;;5062008;28;19921;-75
2022/10/09 01:58:20;;;;;;;;;;;19.60;95.30;;;;;;5061812;28;19939;-77
2022/10/09 02:01:06;;;;;;;;;;;19.90;95.50;;;;;;5067546;28;19952;-76
2022/10/09 02:03:34;;;;;;;;;;;20.30;94.60;;;;;;5058157;28;19934;-76
2022/10/09 02:06:03;;;;;;;;;;;20.60;94.20;;;;;;5055297;28;19916;-77
2022/10/09 02:08:31;;;;;;;;;;;20.70;94.00;;;;;;5066897;28;20383;-78
2022/10/09 02:10:59;;;;;;;;;;;20.90;94.40;;;;;;5068480;28;19927;-78
2022/10/09 02:13:26;;;;;;;;;;;21.10;93.70;;;;;;5065623;28;19963;-76
2022/10/09 02:15:59;;;;;;;;;;;21.10;94.10;;;;;;5061495;28;19935;-77
2022/10/09 02:18:36;;;;;;;;;;;21.00;93.20;;;;;;5064167;28;19920;-78
2022/10/09 02:21:06;;;;;;;;;;;21.20;93.50;;;;;;5062549;28;19999;-78
2022/10/09 02:23:34;;;;;;;;;;;21.30;93.60;;;;;;5054610;28;19920;-79
2022/10/09 02:26:01;;;;;;;;;;;21.70;93.60;;;;;;5069200;28;20629;-77
2022/10/09 02:28:27;;;;;;;;;;;22.00;93.00;;;;;;5066538;28;19916;-78
2022/10/09 02:31:11;;;;;;;;;;;22.10;92.30;;;;;;5071762;28;19928;-79
2022/10/09 02:33:38;;;;;;;;;;;22.40;93.00;;;;;;5059076;28;19948;-79
2022/10/09 02:36:05;;;;;;;;;;;22.50;94.00;;;;;;5070149;28;20283;-78
2022/10/09 02:38:31;;;;;;;;;;;22.50;92.00;;;;;;5080135;28;20404;-79
2022/10/09 02:40:59;;;;;;;;;;;22.30;92.80;;;;;;5068098;28;20390;-81
2022/10/09 02:43:26;;;;;;;;;;;21.70;92.30;;;;;;5060920;28;19916;-79
2022/10/09 02:45:53;;;;;;;;;;;21.10;93.00;;;;;;5070473;28;20541;-78
2022/10/09 02:48:20;;;;;;;;;;;20.80;93.10;;;;;;5068747;28;20267;-78
2022/10/09 02:50:47;;;;;;;;;;;21.00;94.70;;;;;;5060000;28;20027;-77
2022/10/09 02:53:14;;;;;;;;;;;21.20;95.20;;;;;;5061826;28;19920;-79
2022/10/09 02:55:40;;;;;;;;;;;21.40;95.40;;;;;;5063823;28;19913;-78
2022/10/09 02:58:07;;;;;;;;;;;21.70;95.10;;;;;;5077090;28;19912;-78
2022/10/09 03:00:34;;;;;;;;;;;21.90;94.80;;;;;;5068019;28;20335;-76
2022/10/09 03:03:00;;;;;;;;;;;21.90;93.80;;;;;;5070645;28;19909;-79
2022/10/09 03:05:27;;;;;;;;;;;21.80;93.80;;;;;;5070705;28;20354;-77
2022/10/09 03:07:54;;;;;;;;;;;21.70;93.30;;;;;;5070843;28;19908;-78
2022/10/09 03:10:21;;;;;;;;;;;21.60;93.00;;;;;;5068099;28;19923;-79
2022/10/09 03:12:47;;;;;;;;;;;21.60;93.30;;;;;;5064233;28;19921;-76
2022/10/09 03:15:14;;;;;;;;;;;21.70;93.20;;;;;;5068653;28;19916;-77
2022/10/09 03:17:41;;;;;;;;;;;21.90;93.80;;;;;;5069806;28;20335;-78
2022/10/09 03:20:08;;;;;;;;;;;22.00;93.60;;;;;;5073759;28;19909;-78
2022/10/09 03:22:35;;;;;;;;;;;22.00;93.10;;;;;;5067243;28;19916;-78
2022/10/09 03:25:01;;;;;;;;;;;21.80;92.90;;;;;;5076828;28;20348;-79
2022/10/09 03:27:29;;;;;;;;;;;21.30;92.90;;;;;;5074069;28;20355;-77
2022/10/09 03:29:57;;;;;;;;;;;21.30;92.90;;;;;;5057843;28;19964;-77
2022/10/09 03:32:24;;;;;;;;;;;21.60;94.60;;;;;;5072432;28;19920;-77
2022/10/09 03:34:51;;;;;;;;;;;21.70;93.10;;;;;;5066468;28;20266;-78
2022/10/09 03:37:17;;;;;;;;;;;21.70;93.20;;;;;;5077109;28;19912;-79
2022/10/09 03:39:45;;;;;;;;;;;21.40;93.20;;;;;;5073617;28;19913;-79
2022/10/09 03:42:11;;;;;;;;;;;21.00;92.90;;;;;;5070488;28;20007;-78
2022/10/09 03:44:38;;;;;;;;;;;20.70;93.30;;;;;;5069437;28;19920;-78
2022/10/09 03:47:04;;;;;;;;;;;20.60;94.00;;;;;;5067912;27;20392;-79
2022/10/09 03:49:31;;;;;;;;;;;20.70;93.40;;;;;;5063258;28;20947;-78
2022/10/09 03:51:58;;;;;;;;;;;20.90;93.60;;;;;;5064897;28;19924;-78
2022/10/09 03:54:25;;;;;;;;;;;21.10;93.00;;;;;;5064569;28;20340;-77
2022/10/09 03:56:52;;;;;;;;;;;21.30;92.50;;;;;;5068672;28;20468;-76
2022/10/09 03:59:18;;;;;;;;;;;21.50;93.20;;;;;;5069214;28;19975;-77
2022/10/09 04:01:45;;;;;;;;;;;21.30;92.10;;;;;;5066866;28;19920;-77
2022/10/09 04:04:12;;;;;;;;;;;21.00;92.60;;;;;;5071387;28;19916;-77
2022/10/09 04:06:38;;;;;;;;;;;21.00;94.20;;;;;;5066252;28;19917;-76
2022/10/09 04:09:05;;;;;;;;;;;21.10;93.00;;;;;;5064374;28;20011;-77
2022/10/09 04:11:32;;;;;;;;;;;21.00;93.60;;;;;;5071669;28;19986;-76
2022/10/09 04:13:59;;;;;;;;;;;20.70;93.50;;;;;;5063617;28;19920;-78
2022/10/09 04:16:25;;;;;;;;;;;20.50;93.40;;;;;;5067606;28;19920;-75
2022/10/09 04:18:52;;;;;;;;;;;20.40;93.60;;;;;;5063984;28;19942;-74
2022/10/09 04:21:19;;;;;;;;;;;20.50;93.90;;;;;;5100772;28;19916;-76
2022/10/09 04:23:45;;;;;;;;;;;20.50;93.60;;;;;;5062968;28;19973;-75
2022/10/09 04:26:12;;;;;;;;;;;20.40;94.00;;;;;;5063302;28;19913;-75
2022/10/09 04:28:39;;;;;;;;;;;20.50;94.10;;;;;;5060947;28;19920;-76
2022/10/09 04:31:06;;;;;;;;;;;20.80;94.50;;;;;;5068849;28;20429;-78
2022/10/09 04:33:32;;;;;;;;;;;21.00;93.70;;;;;;5061175;28;19923;-75
2022/10/09 04:35:59;;;;;;;;;;;21.00;93.60;;;;;;5063285;28;19916;-75
2022/10/09 04:38:26;;;;;;;;;;;21.10;93.80;;;;;;5069094;28;19988;-76
2022/10/09 04:41:04;;;;;;;;;;;21.00;93.10;;;;;;5059633;28;19916;-77
2022/10/09 04:43:31;;;;;;;;;;;20.80;93.70;;;;;;5061517;28;19912;-77
2022/10/09 04:45:58;;;;;;;;;;;20.50;94.20;;;;;;5064056;28;19913;-77
2022/10/09 04:48:25;;;;;;;;;;;20.20;93.80;;;;;;5065985;28;19908;-77
2022/10/09 04:50:51;;;;;;;;;;;20.00;94.30;;;;;;5065902;28;20402;-76
2022/10/09 04:53:18;;;;;;;;;;;19.80;94.40;;;;;;5063639;28;20378;-74
2022/10/09 04:55:45;;;;;;;;;;;19.80;95.20;;;;;;5067203;28;20367;-75
2022/10/09 04:58:12;;;;;;;;;;;19.80;94.50;;;;;;5062092;28;19991;-76
2022/10/09 05:00:40;;;;;;;;;;;19.70;94.80;;;;;;5065749;28;19940;-76
2022/10/09 05:03:07;;;;;;;;;;;19.60;94.40;;;;;;5061680;28;20370;-77
2022/10/09 05:05:33;;;;;;;;;;;19.50;94.30;;;;;;5064496;28;19917;-77
2022/10/09 05:08:00;;;;;;;;;;;19.50;94.20;;;;;;5065026;28;19971;-76
2022/10/09 05:10:27;;;;;;;;;;;19.50;94.70;;;;;;5063945;28;20401;-78
2022/10/09 05:12:53;;;;;;;;;;;19.40;94.20;;;;;;5081878;28;19947;-78
2022/10/09 05:15:20;;;;;;;;;;;19.40;94.60;;;;;;5063920;28;19923;-76
2022/10/09 05:17:47;;;;;;;;;;;19.40;95.00;;;;;;5062674;28;20012;-77
2022/10/09 05:20:13;;;;;;;;;;;19.40;94.50;;;;;;5060776;28;19912;-79
2022/10/09 05:22:43;;;;;;;;;;;19.50;95.10;;;;;;5067686;28;20349;-76
2022/10/09 05:25:09;;;;;;;;;;;19.60;95.30;;;;;;5068275;28;19908;-79
2022/10/09 05:27:36;;;;;;;;;;;19.50;95.30;;;;;;5068792;28;19920;-76
2022/10/09 05:30:04;;;;;;;;;;;19.50;94.80;;;;;;5069735;28;19923;-77
2022/10/09 05:32:30;;;;;;;;;;;19.40;95.20;;;;;;5065609;28;19959;-76
2022/10/09 05:34:57;;;;;;;;;;;19.30;95.30;;;;;;5067318;28;19956;-78
2022/10/09 05:37:24;;;;;;;;;;;19.30;94.60;;;;;;5061078;28;20398;-75
2022/10/09 05:39:50;;;;;;;;;;;19.30;95.10;;;;;;5066022;28;19912;-74
2022/10/09 05:42:17;;;;;;;;;;;19.40;95.10;;;;;;5065478;28;19923;-74
2022/10/09 05:44:44;;;;;;;;;;;19.20;94.60;;;;;;5060516;28;19916;-73
2022/10/09 05:47:12;;;;;;;;;;;19.10;94.80;;;;;;5068102;28;20014;-74
2022/10/09 05:49:39;;;;;;;;;;;19.10;95.30;;;;;;5066345;28;19999;-73
2022/10/09 05:52:05;;;;;;;;;;;19.00;94.70;;;;;;5070163;28;19931;-77
2022/10/09 05:54:32;;;;;;;;;;;19.10;93.90;;;;;;5069795;28;19913;-77
2022/10/09 05:56:59;;;;;;;;;;;19.20;94.50;;;;;;5066957;28;19940;-77
2022/10/09 05:59:25;;;;;;;;;;;19.40;94.50;;;;;;5058902;28;19912;-77
2022/10/09 06:01:53;;;;;;;;;;;19.40;93.90;;;;;;5056901;28;19955;-77
2022/10/09 06:04:21;;;;;;;;;;;19.60;94.00;;;;;;5062137;28;20007;-76
2022/10/09 06:06:48;;;;;;;;;;;19.90;94.40;;;;;;5067100;28;19970;-76
2022/10/09 06:09:16;;;;;;;;;;;20.10;93.30;;;;;;5064074;28;19920;-77
2022/10/09 06:11:43;;;;;;;;;;;19.90;92.40;;;;;;5063911;28;19928;-74
2022/10/09 06:14:11;;;;;;;;;;;19.70;92.90;;;;;;5060234;28;19920;-75
2022/10/09 06:16:39;;;;;;;;;;;19.50;93.30;;;;;;5053608;28;19948;-76
2022/10/09 06:19:06;;;;;;;;;;;19.60;94.60;;;;;;5064207;28;19982;-76
2022/10/09 06:21:33;;;;;;;;;;;19.80;93.80;;;;;;5067489;28;20366;-76
2022/10/09 06:24:01;;;;;;;;;;;20.00;94.20;;;;;;5064436;28;20324;-75
2022/10/09 06:26:28;;;;;;;;;;;20.10;94.00;;;;;;5067982;28;19917;-75
2022/10/09 06:28:56;;;;;;;;;;;20.10;93.80;;;;;;5060289;28;20481;-74
2022/10/09 06:31:24;;;;;;;;;;;20.00;93.50;;;;;;5068474;28;19928;-75
2022/10/09 06:33:51;;;;;;;;;;;19.90;93.40;;;;;;5067512;28;19952;-76
2022/10/09 06:36:18;;;;;;;;;;;19.50;94.10;;;;;;5069405;28;19917;-76
2022/10/09 06:38:45;;;;;;;;;;;18.90;94.70;;;;;;5068550;28;20189;-75
2022/10/09 06:41:16;;;;;;;;;;;18.30;95.50;;;;;;5068994;28;19986;-75
2022/10/09 06:43:43;;;;;;;;;;;18.00;96.00;;;;;;5067857;28;19924;-75
2022/10/09 06:46:10;;;;;;;;;;;17.80;96.60;;;;;;5067819;28;19916;-76
2022/10/09 06:48:38;;;;;;;;;;;17.60;96.70;;;;;;5066929;28;20289;-75
2022/10/09 06:51:06;;;;;;;;;;;17.50;96.90;;;;;;5067179;28;20149;-75
2022/10/09 06:53:36;;;;;;;;;;;17.30;97.20;;;;;;5061860;28;20516;-76
2022/10/09 06:56:03;;;;;;;;;;;17.30;97.30;;;;;;5064259;28;19916;-77
2022/10/09 06:58:30;;;;;;;;;;;17.30;97.60;;;;;;5064746;28;19920;-76
2022/10/09 07:01:13;;;;;;;;;;;17.30;97.80;;;;;;5066006;28;19947;-76
2022/10/09 07:03:41;;;;;;;;;;;17.30;97.80;;;;;;5064063;28;19912;-76
2022/10/09 07:06:08;;;;;;;;;;;17.20;97.70;;;;;;5064309;28;19955;-75
2022/10/09 07:08:35;;;;;;;;;;;17.10;97.70;;;;;;5060415;28;19913;-76
2022/10/09 07:11:21;;;;;;;;;;;16.90;97.90;;;;;;5061946;28;19916;-76
2022/10/09 07:13:49;;;;;;;;;;;16.90;98.20;;;;;;5065627;28;19982;-75
2022/10/09 07:16:23;;;;;;;;;;;16.80;98.20;;;;;;5060361;28;19917;-75
2022/10/09 07:18:50;;;;;;;;;;;16.70;98.50;;;;;;5065528;28;19955;-75
2022/10/09 07:21:17;;;;;;;;;;;16.60;98.50;;;;;;5072219;28;20381;-75
2022/10/09 07:23:43;;;;;;;;;;;16.50;98.70;;;;;;5071577;28;19950;-75
2022/10/09 07:26:12;;;;;;;;;;;16.50;98.80;;;;;;5073192;28;20003;-76
2022/10/09 07:28:39;;;;;;;;;;;16.50;98.90;;;;;;5062000;28;19926;-75
2022/10/09 07:31:06;;;;;;;;;;;16.50;99.00;;;;;;5068180;28;19965;-76
2022/10/09 07:33:32;;;;;;;;;;;16.50;99.40;;;;;;5071390;28;19921;-76
2022/10/09 07:35:59;;;;;;;;;;;16.50;99.20;;;;;;5053717;28;19920;-76
2022/10/09 07:38:26;;;;;;;;;;;16.40;98.70;;;;;;5058364;28;19959;-75
2022/10/09 07:40:54;;;;;;;;;;;16.40;98.90;;;;;;5063629;28;20039;-76
2022/10/09 07:43:21;;;;;;;;;;;16.40;99.10;;;;;;5062486;28;20274;-75
2022/10/09 07:45:48;;;;;;;;;;;16.30;99.10;;;;;;5065222;28;19950;-76
2022/10/09 07:48:18;;;;;;;;;;;16.30;99.10;;;;;;5059636;28;20409;-76
2022/10/09 07:50:45;;;;;;;;;;;16.30;99.20;;;;;;5063054;28;19947;-75
2022/10/09 07:53:11;;;;;;;;;;;16.20;99.10;;;;;;5070397;28;19966;-74
2022/10/09 07:55:43;;;;;;;;;;;16.20;99.30;;;;;;5070327;28;19923;-76
2022/10/09 07:58:10;;;;;;;;;;;16.20;99.50;;;;;;5059927;28;19962;-75
2022/10/09 08:00:36;;;;;;;;;;;16.10;99.50;;;;;;5067317;28;19916;-73
2022/10/09 08:03:03;;;;;;;;;;;16.10;99.70;;;;;;5073099;28;19999;-74
2022/10/09 08:05:30;;;;;;;;;;;16.10;99.80;;;;;;5065340;28;19916;-74
2022/10/09 08:07:56;;;;;;;;;;;16.10;99.70;;;;;;5069277;28;19921;-74
2022/10/09 08:10:23;;;;;;;;;;;16.00;99.70;;;;;;5062254;28;19967;-76
2022/10/09 08:12:50;;;;;;;;;;;16.00;99.90;;;;;;5064964;28;19924;-76
2022/10/09 08:15:16;;;;;;;;;;;16.00;99.90;;;;;;5065557;28;19928;-76
2022/10/09 08:17:43;;;;;;;;;;;16.00;99.90;;;;;;5070494;28;19923;-75
2022/10/09 08:20:10;;;;;;;;;;;16.00;99.90;;;;;;5065551;28;20394;-76
2022/10/09 08:22:36;;;;;;;;;;;15.90;99.90;;;;;;5066051;28;20256;-75
2022/10/09 08:25:03;;;;;;;;;;;15.90;99.90;;;;;;5067611;28;20264;-76
2022/10/09 08:27:30;;;;;;;;;;;15.90;99.90;;;;;;5058991;28;19912;-77
2022/10/09 08:29:57;;;;;;;;;;;15.90;99.90;;;;;;5062221;28;20463;-78
2022/10/09 08:32:23;;;;;;;;;;;15.80;99.90;;;;;;5062515;28;19924;-78
2022/10/09 08:34:51;;;;;;;;;;;15.80;99.90;;;;;;5058586;28;19948;-77
2022/10/09 08:37:18;;;;;;;;;;;15.80;99.90;;;;;;5066107;28;20271;-77
2022/10/09 08:39:44;;;;;;;;;;;15.80;99.90;;;;;;5060275;28;20599;-79
2022/10/09 08:42:25;;;;;;;;;;;15.80;99.90;;;;;;5066991;28;20297;-77
2022/10/09 08:44:52;;;;;;;;;;;15.70;99.90;;;;;;5070327;28;20351;-77
2022/10/09 08:47:25;;;;;;;;;;;15.70;99.90;;;;;;5063127;28;20001;-78
2022/10/09 08:49:54;;;;;;;;;;;15.70;99.90;;;;;;5064089;28;20343;-78
2022/10/09 08:52:35;;;;;;;;;;;15.60;99.90;;;;;;5069963;28;19920;-80
2022/10/09 08:55:10;;;;;;;;;;;15.60;99.90;;;;;;5064927;28;19913;-79
2022/10/09 08:57:40;;;;;;;;;;;15.60;99.90;;;;;;5062847;28;20019;-78
2022/10/09 09:00:13;;;;;;;;;;;15.60;99.90;;;;;;5064009;28;20333;-76
2022/10/09 09:03:05;;;;;;;;;;;15.50;99.90;;;;;;5069730;28;19920;-76
2022/10/09 09:05:48;;;;;;;;;;;15.50;99.90;;;;;;5049719;28;19912;-77
2022/10/09 09:08:29;;;;;;;;;;;15.50;99.90;;;;;;5062260;28;19912;-77
2022/10/09 09:10:56;;;;;;;;;;;15.50;99.90;;;;;;5058132;28;19920;-78
2022/10/09 09:13:32;;;;;;;;;;;15.50;99.90;;;;;;5061515;28;19994;-77
2022/10/09 09:16:09;;;;;;;;;;;15.50;99.90;;;;;;5064350;28;19970;-76
2022/10/09 09:18:35;;;;;;;;;;;15.40;99.90;;;;;;5053752;28;19931;-78
2022/10/09 09:21:10;;;;;;;;;;;15.40;99.90;;;;;;5058855;28;20007;-78
2022/10/09 09:23:39;;;;;;;;;;;15.30;99.90;;;;;;5059559;28;19989;-77
2022/10/09 09:26:11;;;;;;;;;;;15.30;99.90;;;;;;5060552;28;20462;-76
2022/10/09 09:28:38;;;;;;;;;;;15.20;99.90;;;;;;5060282;28;19917;-77
2022/10/09 09:31:15;;;;;;;;;;;15.00;99.90;;;;;;5060194;28;19934;-77
2022/10/09 09:33:46;;;;;;;;;;;14.90;99.90;;;;;;5061016;28;19920;-77
2022/10/09 09:36:27;;;;;;;;;;;14.80;99.90;;;;;;5063603;28;19913;-77
2022/10/09 09:38:54;;;;;;;;;;;14.70;99.90;;;;;;5059094;28;19917;-78
2022/10/09 09:41:21;;;;;;;;;;;14.70;99.90;;;;;;5057279;28;19924;-77
2022/10/09 09:43:47;;;;;;;;;;;14.60;99.90;;;;;;5058059;28;20003;-78
2022/10/09 09:46:19;;;;;;;;;;;14.50;99.90;;;;;;5069168;28;19913;-77
2022/10/09 09:48:47;;;;;;;;;;;14.40;99.90;;;;;;5065687;28;20411;-76
2022/10/09 09:51:14;;;;;;;;;;;14.30;99.90;;;;;;5067063;28;19920;-77
2022/10/09 09:53:45;;;;;;;;;;;14.30;99.90;;;;;;5061711;28;19921;-78
2022/10/09 09:56:12;;;;;;;;;;;14.30;99.90;;;;;;5063903;28;20379;-77
2022/10/09 09:58:43;;;;;;;;;;;14.40;99.90;;;;;;5064548;28;19913;-77
2022/10/09 10:01:18;;;;;;;;;;;14.40;99.90;;;;;;5070505;28;19912;-75
2022/10/09 10:03:49;;;;;;;;;;;14.40;99.90;;;;;;5060193;28;20019;-79
2022/10/09 10:06:22;;;;;;;;;;;14.40;99.90;;;;;;5065790;28;19916;-77
2022/10/09 10:09:03;;;;;;;;;;;14.40;99.90;;;;;;5094711;28;20007;-76
2022/10/09 10:11:31;;;;;;;;;;;14.30;99.90;;;;;;5074976;28;20294;-76
2022/10/09 10:14:05;;;;;;;;;;;14.30;99.90;;;;;;5067344;28;19920;-75
2022/10/09 10:16:33;;;;;;;;;;;14.30;99.90;;;;;;5069396;28;19912;-77
2022/10/09 10:19:00;;;;;;;;;;;14.20;99.90;;;;;;5063374;28;19969;-76
2022/10/09 10:21:26;;;;;;;;;;;14.20;99.90;;;;;;5057719;28;20066;-76
2022/10/09 10:24:04;;;;;;;;;;;14.10;99.90;;;;;;5058671;28;19917;-77
2022/10/09 10:26:33;;;;;;;;;;;14.10;99.90;;;;;;5064987;28;19919;-74
2022/10/09 10:29:03;;;;;;;;;;;14.10;99.90;;;;;;5063463;28;19913;-88
2022/10/09 10:31:42;;;;;;;;;;;14.10;99.90;;;;;;5070604;28;19928;-86
2022/10/09 10:34:16;;;;;;;;;;;14.00;99.90;;;;;;5071905;28;20438;-85
2022/10/09 10:36:43;;;;;;;;;;;13.90;99.90;;;;;;5074615;28;19921;-79
2022/10/09 10:39:33;;;;;;;;;;;13.90;99.90;;;;;;5077486;28;19916;-81
2022/10/09 10:42:02;;;;;;;;;;;13.80;99.90;;;;;;5081755;28;19913;-80
2022/10/09 10:44:38;;;;;;;;;;;13.70;99.90;;;;;;5081004;28;19976;-82
2022/10/09 10:47:07;;;;;;;;;;;13.60;99.90;;;;;;5085696;28;19920;-78
2022/10/09 10:49:34;;;;;;;;;;;13.60;99.90;;;;;;5081443;28;19959;-81
2022/10/09 10:52:19;;;;;;;;;;;13.50;99.90;;;;;;5070137;28;19924;-81
2022/10/09 10:54:53;;;;;;;;;;;13.40;99.90;;;;;;5067511;28;19913;-82
2022/10/09 10:57:20;;;;;;;;;;;13.30;99.90;;;;;;5064432;28;20367;-84
2022/10/09 11:00:13;;;;;;;;;;;13.30;99.90;;;;;;5065157;28;19916;-89
2022/10/09 11:02:48;;;;;;;;;;;13.30;99.90;;;;;;5057939;28;19912;-78
2022/10/09 11:05:15;;;;;;;;;;;13.30;99.90;;;;;;5072146;28;19956;-85
2022/10/09 11:07:57;;;;;;;;;;;13.40;99.90;;;;;;5070686;28;19916;-87
2022/10/09 11:10:43;;;;;;;;;;;13.40;99.90;;;;;;5067562;28;20433;-79
2022/10/09 11:13:17;;;;;;;;;;;13.50;99.90;;;;;;5066068;28;19989;-85
2022/10/09 11:15:50;;;;;;;;;;;13.60;99.90;;;;;;5066935;28;19924;-79
2022/10/09 11:18:29;;;;;;;;;;;13.70;99.90;;;;;;5059475;28;20291;-84
2022/10/09 11:21:04;;;;;;;;;;;13.70;99.90;;;;;;5061904;28;19917;-86
2022/10/09 11:23:37;;;;;;;;;;;13.80;99.90;;;;;;5070629;28;19924;-86
2022/10/09 11:26:12;;;;;;;;;;;13.80;99.90;;;;;;5066674;28;19940;-75
2022/10/09 11:28:43;;;;;;;;;;;13.80;99.90;;;;;;5059675;28;19919;-88
2022/10/09 11:31:13;;;;;;;;;;;13.80;99.90;;;;;;5071070;28;19923;-88
2022/10/09 11:33:45;;;;;;;;;;;13.80;99.90;;;;;;5068797;28;19920;-85
2022/10/09 11:36:31;;;;;;;;;;;13.80;99.90;;;;;;5074240;28;20386;-86
2022/10/09 11:38:59;;;;;;;;;;;13.80;99.90;;;;;;5078987;28;19913;-84
2022/10/09 11:41:26;;;;;;;;;;;13.80;99.90;;;;;;5073459;28;20006;-79
2022/10/09 11:44:19;;;;;;;;;;;13.80;99.90;;;;;;5077347;28;19913;-88
2022/10/09 11:47:05;;;;;;;;;;;13.80;99.90;;;;;;5070675;28;19913;-84
2022/10/09 11:49:40;;;;;;;;;;;13.80;99.90;;;;;;5078547;28;19927;-85
2022/10/09 11:52:16;;;;;;;;;;;13.70;99.90;;;;;;5070684;28;19928;-86
2022/10/09 11:54:42;;;;;;;;;;;13.70;99.90;;;;;;5075927;28;19936;-82
2022/10/09 11:57:09;;;;;;;;;;;13.70;99.90;;;;;;5069013;28;20412;-82
2022/10/09 11:59:40;;;;;;;;;;;13.70;99.90;;;;;;5074178;28;19991;-82
2022/10/09 12:02:23;;;;;;;;;;;13.70;99.90;;;;;;5072366;28;19955;-84
2022/10/09 12:04:49;;;;;;;;;;;13.70;99.90;;;;;;5069449;28;20443;-86
2022/10/09 12:07:25;;;;;;;;;;;13.70;99.90;;;;;;5075465;28;20294;-81
2022/10/09 12:09:56;;;;;;;;;;;13.80;99.90;;;;;;5073051;28;19917;-78
2022/10/09 12:12:23;;;;;;;;;;;13.80;99.90;;;;;;5080255;28;19916;-84
2022/10/09 12:14:51;;;;;;;;;;;13.80;99.90;;;;;;5069910;28;19927;-80
2022/10/09 12:17:33;;;;;;;;;;;13.70;99.90;;;;;;5064579;28;19912;-80
2022/10/09 12:20:08;;;;;;;;;;;13.80;99.90;;;;;;5064690;28;20003;-85
2022/10/09 12:22:37;;;;;;;;;;;13.80;99.90;;;;;;5073797;28;19917;-77
2022/10/09 12:25:23;;;;;;;;;;;13.80;99.90;;;;;;5067576;28;19913;-85
2022/10/09 12:27:52;;;;;;;;;;;13.80;99.90;;;;;;5067906;28;19916;-84
2022/10/09 12:30:21;;;;;;;;;;;13.70;99.90;;;;;;5073316;28;19927;-83
2022/10/09 12:32:51;;;;;;;;;;;13.70;99.90;;;;;;5062431;28;19920;-84
2022/10/09 12:35:37;;;;;;;;;;;13.70;99.90;;;;;;5069912;28;19920;-82
2022/10/09 12:38:17;;;;;;;;;;;13.60;99.90;;;;;;5064833;28;19916;-84
2022/10/09 12:40:47;;;;;;;;;;;13.60;99.90;;;;;;5058736;28;19994;-80
2022/10/09 12:43:16;;;;;;;;;;;13.60;99.90;;;;;;5064798;28;19940;-85
2022/10/09 12:45:44;;;;;;;;;;;13.70;99.90;;;;;;5075671;28;20011;-86
2022/10/09 12:48:12;;;;;;;;;;;13.70;99.90;;;;;;5066797;28;19916;-87
2022/10/09 12:50:39;;;;;;;;;;;13.60;99.90;;;;;;5068342;28;20003;-78
2022/10/09 12:53:12;;;;;;;;;;;13.60;99.90;;;;;;5071378;28;19932;-85
2022/10/09 12:55:44;;;;;;;;;;;13.50;99.90;;;;;;5065171;28;19940;-84
2022/10/09 12:58:13;;;;;;;;;;;13.50;99.90;;;;;;5068818;28;19943;-85
2022/10/09 13:00:40;;;;;;;;;;;13.40;99.90;;;;;;5065539;28;19912;-86
2022/10/09 13:03:22;;;;;;;;;;;13.40;99.90;;;;;;5072726;28;19916;-85
2022/10/09 13:05:48;;;;;;;;;;;13.40;99.90;;;;;;5072760;28;19924;-87
2022/10/09 13:08:26;;;;;;;;;;;13.30;99.90;;;;;;5071941;28;20394;-84
2022/10/09 13:10:53;;;;;;;;;;;13.20;99.90;;;;;;5072861;28;19950;-85
2022/10/09 13:13:25;;;;;;;;;;;13.10;99.90;;;;;;5086306;28;19924;-82
2022/10/09 13:16:02;;;;;;;;;;;13.10;99.90;;;;;;5072590;28;19973;-79
2022/10/09 13:18:29;;;;;;;;;;;13.10;99.90;;;;;;5071458;28;19917;-81
2022/10/09 13:21:13;;;;;;;;;;;13.00;99.90;;;;;;5073019;28;19912;-86
2022/10/09 13:23:40;;;;;;;;;;;13.10;99.90;;;;;;5071241;28;20306;-84
2022/10/09 13:26:07;;;;;;;;;;;13.00;99.90;;;;;;5073198;28;20396;-83
2022/10/09 13:28:33;;;;;;;;;;;13.10;99.90;;;;;;5071494;28;19976;-82
2022/10/09 13:31:07;;;;;;;;;;;13.00;99.90;;;;;;5072900;28;19993;-83
2022/10/09 13:33:33;;;;;;;;;;;13.00;99.90;;;;;;5072556;28;19917;-84
2022/10/09 13:36:00;;;;;;;;;;;13.00;99.90;;;;;;5073544;28;20256;-79
2022/10/09 13:38:27;;;;;;;;;;;13.00;99.90;;;;;;5072171;28;20017;-82
2022/10/09 13:40:54;;;;;;;;;;;13.00;99.90;;;;;;5074019;28;19918;-84
2022/10/09 13:43:22;;;;;;;;;;;13.00;99.90;;;;;;5072244;28;19916;-85
2022/10/09 13:45:49;;;;;;;;;;;12.90;99.90;;;;;;5072060;28;20290;-82
2022/10/09 13:48:17;;;;;;;;;;;12.90;99.90;;;;;;5071307;28;20401;-79
2022/10/09 13:50:44;;;;;;;;;;;12.90;99.90;;;;;;5070740;28;19966;-80
2022/10/09 13:53:11;;;;;;;;;;;12.80;99.90;;;;;;5071666;28;19920;-85
2022/10/09 13:55:37;;;;;;;;;;;12.80;99.90;;;;;;5062699;28;19912;-83
2022/10/09 13:58:04;;;;;;;;;;;12.80;99.90;;;;;;5061613;28;19917;-82
2022/10/09 14:00:31;;;;;;;;;;;12.80;99.90;;;;;;5065075;28;21133;-85
2022/10/09 14:02:57;;;;;;;;;;;12.90;99.90;;;;;;5058768;28;19919;-83
2022/10/09 14:05:25;;;;;;;;;;;12.90;99.90;;;;;;5072681;28;20375;-84
2022/10/09 14:07:52;;;;;;;;;;;12.90;99.90;;;;;;5063927;28;20354;-87
2022/10/09 14:10:21;;;;;;;;;;;13.00;99.90;;;;;;5071506;28;19915;-83
2022/10/09 14:12:51;;;;;;;;;;;13.10;99.90;;;;;;5085426;28;19916;-84
2022/10/09 14:15:18;;;;;;;;;;;13.10;99.90;;;;;;5080692;28;19913;-85
2022/10/09 14:17:45;;;;;;;;;;;13.10;99.90;;;;;;5065017;28;19920;-84
2022/10/09 14:20:12;;;;;;;;;;;13.10;99.90;;;;;;5052351;28;19908;-84
2022/10/09 14:22:38;;;;;;;;;;;13.20;99.90;;;;;;5059195;28;19951;-83
2022/10/09 14:25:06;;;;;;;;;;;13.20;99.90;;;;;;5069028;28;19927;-83
2022/10/09 14:27:32;;;;;;;;;;;13.20;99.90;;;;;;5070748;28;20322;-84
2022/10/09 14:29:59;;;;;;;;;;;13.20;99.90;;;;;;5071828;28;20378;-83